sensor_id;sensor_type;location;lat;lon;timestamp;P1;durP1;ratioP1;P2;durP2;ratioP2
60973;SDS011;46846;51.528;5.076;2023-05-29T00:01:13;362.63;;;344.73;;
60973;SDS011;46846;51.528;5.076;2023-05-29T00:03:38;358.15;;;340.17;;
60973;SDS011;46846;51.528;5.076;2023-05-29T00:06:04;350.67;;;332.92;;
60973;SDS011;46846;51.528;5.076;2023-05-29T00:08:31;344.95;;;327.38;;
60973;SDS011;46846;51.528;5.076;2023-05-29T00:10:57;354.80;;;337.20;;
60973;SDS011;46846;51.528;5.076;2023-05-29T00:13:22;368.13;;;349.55;;
60973;SDS011;46846;51.528;5.076;2023-05-29T00:15:48;345.00;;;327.63;;
60973;SDS011;46846;51.528;5.076;2023-05-29T00:18:13;340.50;;;323.42;;
60973;SDS011;46846;51.528;5.076;2023-05-29T00:20:39;351.55;;;333.92;;
60973;SDS011;46846;51.528;5.076;2023-05-29T00:23:04;350.85;;;333.40;;
60973;SDS011;46846;51.528;5.076;2023-05-29T00:25:31;339.77;;;322.73;;
60973;SDS011;46846;51.528;5.076;2023-05-29T00:27:57;348.65;;;330.98;;
60973;SDS011;46846;51.528;5.076;2023-05-29T00:30:22;344.48;;;327.25;;
60973;SDS011;46846;51.528;5.076;2023-05-29T00:32:48;345.02;;;327.40;;
60973;SDS011;46846;51.528;5.076;2023-05-29T00:35:13;342.80;;;325.63;;
60973;SDS011;46846;51.528;5.076;2023-05-29T00:37:38;325.23;;;308.85;;
60973;SDS011;46846;51.528;5.076;2023-05-29T00:40:05;348.92;;;331.52;;
60973;SDS011;46846;51.528;5.076;2023-05-29T00:42:31;339.52;;;322.48;;
60973;SDS011;46846;51.528;5.076;2023-05-29T00:44:56;352.80;;;335.42;;
60973;SDS011;46846;51.528;5.076;2023-05-29T00:47:22;334.40;;;317.85;;
60973;SDS011;46846;51.528;5.076;2023-05-29T00:49:47;337.02;;;320.00;;
60973;SDS011;46846;51.528;5.076;2023-05-29T00:52:16;344.98;;;327.52;;
60973;SDS011;46846;51.528;5.076;2023-05-29T00:54:44;342.33;;;324.88;;
60973;SDS011;46846;51.528;5.076;2023-05-29T00:57:11;325.15;;;308.77;;
60973;SDS011;46846;51.528;5.076;2023-05-29T00:59:38;347.38;;;330.08;;
60973;SDS011;46846;51.528;5.076;2023-05-29T01:02:04;331.90;;;315.17;;
60973;SDS011;46846;51.528;5.076;2023-05-29T01:04:31;340.02;;;322.15;;
60973;SDS011;46846;51.528;5.076;2023-05-29T01:07:00;337.50;;;320.73;;
60973;SDS011;46846;51.528;5.076;2023-05-29T01:09:27;331.85;;;314.85;;
60973;SDS011;46846;51.528;5.076;2023-05-29T01:20:02;318.20;;;301.85;;
60973;SDS011;46846;51.528;5.076;2023-05-29T01:27:54;312.08;;;296.17;;
60973;SDS011;46846;51.528;5.076;2023-05-29T01:30:20;318.65;;;302.48;;
60973;SDS011;46846;51.528;5.076;2023-05-29T01:32:49;327.83;;;310.95;;
60973;SDS011;46846;51.528;5.076;2023-05-29T01:35:16;329.38;;;312.50;;
60973;SDS011;46846;51.528;5.076;2023-05-29T01:37:41;324.42;;;307.95;;
60973;SDS011;46846;51.528;5.076;2023-05-29T01:40:07;327.70;;;311.00;;
60973;SDS011;46846;51.528;5.076;2023-05-29T01:42:33;314.73;;;298.73;;
60973;SDS011;46846;51.528;5.076;2023-05-29T01:44:58;323.42;;;307.42;;
60973;SDS011;46846;51.528;5.076;2023-05-29T01:47:25;327.30;;;310.38;;
60973;SDS011;46846;51.528;5.076;2023-05-29T01:49:51;315.98;;;299.65;;
60973;SDS011;46846;51.528;5.076;2023-05-29T01:52:17;332.48;;;315.58;;
60973;SDS011;46846;51.528;5.076;2023-05-29T01:54:43;331.70;;;314.77;;
60973;SDS011;46846;51.528;5.076;2023-05-29T01:57:09;324.73;;;308.33;;
60973;SDS011;46846;51.528;5.076;2023-05-29T01:59:35;325.15;;;308.25;;
60973;SDS011;46846;51.528;5.076;2023-05-29T02:02:08;308.10;;;292.83;;
60973;SDS011;46846;51.528;5.076;2023-05-29T02:04:34;332.10;;;315.25;;
60973;SDS011;46846;51.528;5.076;2023-05-29T02:06:59;312.75;;;296.52;;
60973;SDS011;46846;51.528;5.076;2023-05-29T02:09:25;296.95;;;281.70;;
60973;SDS011;46846;51.528;5.076;2023-05-29T02:11:51;324.40;;;306.95;;
60973;SDS011;46846;51.528;5.076;2023-05-29T02:14:16;316.40;;;299.90;;
60973;SDS011;46846;51.528;5.076;2023-05-29T02:16:42;312.58;;;296.10;;
60973;SDS011;46846;51.528;5.076;2023-05-29T02:19:09;324.05;;;307.17;;
60973;SDS011;46846;51.528;5.076;2023-05-29T02:21:38;298.85;;;283.38;;
60973;SDS011;46846;51.528;5.076;2023-05-29T02:24:04;312.42;;;295.95;;
60973;SDS011;46846;51.528;5.076;2023-05-29T02:26:30;308.15;;;292.42;;
60973;SDS011;46846;51.528;5.076;2023-05-29T02:28:56;317.75;;;301.50;;
60973;SDS011;46846;51.528;5.076;2023-05-29T02:31:21;319.95;;;303.83;;
60973;SDS011;46846;51.528;5.076;2023-05-29T02:33:47;305.17;;;289.80;;
60973;SDS011;46846;51.528;5.076;2023-05-29T02:36:13;312.10;;;294.95;;
60973;SDS011;46846;51.528;5.076;2023-05-29T02:38:38;302.42;;;286.50;;
60973;SDS011;46846;51.528;5.076;2023-05-29T02:41:04;317.35;;;300.88;;
60973;SDS011;46846;51.528;5.076;2023-05-29T02:43:30;304.70;;;289.27;;
60973;SDS011;46846;51.528;5.076;2023-05-29T02:45:56;313.75;;;297.65;;
60973;SDS011;46846;51.528;5.076;2023-05-29T02:48:21;290.50;;;275.55;;
60973;SDS011;46846;51.528;5.076;2023-05-29T02:50:47;305.08;;;289.02;;
60973;SDS011;46846;51.528;5.076;2023-05-29T02:53:12;298.08;;;283.10;;
60973;SDS011;46846;51.528;5.076;2023-05-29T02:55:38;302.98;;;286.95;;
60973;SDS011;46846;51.528;5.076;2023-05-29T02:58:03;303.55;;;287.83;;
60973;SDS011;46846;51.528;5.076;2023-05-29T03:00:29;291.27;;;276.10;;
60973;SDS011;46846;51.528;5.076;2023-05-29T03:02:54;307.77;;;292.05;;
60973;SDS011;46846;51.528;5.076;2023-05-29T03:05:20;282.35;;;267.30;;
60973;SDS011;46846;51.528;5.076;2023-05-29T03:07:45;298.20;;;282.52;;
60973;SDS011;46846;51.528;5.076;2023-05-29T03:10:11;290.05;;;275.10;;
60973;SDS011;46846;51.528;5.076;2023-05-29T03:12:37;309.67;;;293.70;;
60973;SDS011;46846;51.528;5.076;2023-05-29T03:15:03;294.90;;;279.55;;
60973;SDS011;46846;51.528;5.076;2023-05-29T03:17:28;288.75;;;273.75;;
60973;SDS011;46846;51.528;5.076;2023-05-29T03:19:54;291.98;;;277.20;;
60973;SDS011;46846;51.528;5.076;2023-05-29T03:22:19;292.35;;;277.25;;
60973;SDS011;46846;51.528;5.076;2023-05-29T03:24:45;304.27;;;288.77;;
60973;SDS011;46846;51.528;5.076;2023-05-29T03:27:10;303.48;;;288.00;;
60973;SDS011;46846;51.528;5.076;2023-05-29T03:29:36;295.70;;;280.65;;
60973;SDS011;46846;51.528;5.076;2023-05-29T03:32:01;288.27;;;273.15;;
60973;SDS011;46846;51.528;5.076;2023-05-29T03:34:27;284.90;;;270.25;;
60973;SDS011;46846;51.528;5.076;2023-05-29T03:36:52;296.67;;;281.05;;
60973;SDS011;46846;51.528;5.076;2023-05-29T03:39:18;297.63;;;282.35;;
60973;SDS011;46846;51.528;5.076;2023-05-29T03:41:43;288.35;;;273.70;;
60973;SDS011;46846;51.528;5.076;2023-05-29T03:44:09;291.80;;;276.88;;
60973;SDS011;46846;51.528;5.076;2023-05-29T03:46:34;296.15;;;281.20;;
60973;SDS011;46846;51.528;5.076;2023-05-29T03:49:00;299.50;;;284.00;;
60973;SDS011;46846;51.528;5.076;2023-05-29T03:51:25;289.17;;;274.33;;
60973;SDS011;46846;51.528;5.076;2023-05-29T03:53:51;281.73;;;267.08;;
60973;SDS011;46846;51.528;5.076;2023-05-29T03:56:16;275.35;;;260.98;;
60973;SDS011;46846;51.528;5.076;2023-05-29T03:58:41;291.75;;;276.48;;
60973;SDS011;46846;51.528;5.076;2023-05-29T04:01:07;275.75;;;261.40;;
60973;SDS011;46846;51.528;5.076;2023-05-29T04:03:34;280.42;;;265.67;;
60973;SDS011;46846;51.528;5.076;2023-05-29T04:06:00;285.90;;;271.00;;
60973;SDS011;46846;51.528;5.076;2023-05-29T04:08:25;289.70;;;274.33;;
60973;SDS011;46846;51.528;5.076;2023-05-29T04:10:51;282.55;;;268.17;;
60973;SDS011;46846;51.528;5.076;2023-05-29T04:13:19;284.95;;;270.25;;
60973;SDS011;46846;51.528;5.076;2023-05-29T04:15:45;285.73;;;271.25;;
60973;SDS011;46846;51.528;5.076;2023-05-29T04:18:10;269.30;;;254.93;;
60973;SDS011;46846;51.528;5.076;2023-05-29T04:20:35;279.73;;;264.80;;
60973;SDS011;46846;51.528;5.076;2023-05-29T04:23:01;271.30;;;257.08;;
60973;SDS011;46846;51.528;5.076;2023-05-29T04:25:26;286.83;;;271.17;;
60973;SDS011;46846;51.528;5.076;2023-05-29T04:27:52;268.25;;;254.45;;
60973;SDS011;46846;51.528;5.076;2023-05-29T04:30:17;257.33;;;244.48;;
60973;SDS011;46846;51.528;5.076;2023-05-29T04:32:43;273.75;;;259.55;;
60973;SDS011;46846;51.528;5.076;2023-05-29T04:35:08;284.00;;;269.63;;
60973;SDS011;46846;51.528;5.076;2023-05-29T04:37:34;266.00;;;252.38;;
60973;SDS011;46846;51.528;5.076;2023-05-29T04:40:06;273.45;;;259.48;;
60973;SDS011;46846;51.528;5.076;2023-05-29T04:42:36;270.30;;;256.42;;
60973;SDS011;46846;51.528;5.076;2023-05-29T04:45:02;277.38;;;263.40;;
60973;SDS011;46846;51.528;5.076;2023-05-29T04:47:30;277.02;;;262.35;;
60973;SDS011;46846;51.528;5.076;2023-05-29T04:49:57;284.52;;;269.88;;
60973;SDS011;46846;51.528;5.076;2023-05-29T04:52:24;265.52;;;251.82;;
60973;SDS011;46846;51.528;5.076;2023-05-29T04:54:50;279.75;;;265.25;;
60973;SDS011;46846;51.528;5.076;2023-05-29T04:57:15;271.75;;;257.67;;
60973;SDS011;46846;51.528;5.076;2023-05-29T04:59:41;274.42;;;260.42;;
60973;SDS011;46846;51.528;5.076;2023-05-29T05:02:06;272.33;;;258.17;;
60973;SDS011;46846;51.528;5.076;2023-05-29T05:04:32;267.77;;;253.90;;
60973;SDS011;46846;51.528;5.076;2023-05-29T05:06:57;270.50;;;255.77;;
60973;SDS011;46846;51.528;5.076;2023-05-29T05:09:23;277.35;;;263.15;;
60973;SDS011;46846;51.528;5.076;2023-05-29T05:11:49;265.38;;;251.30;;
60973;SDS011;46846;51.528;5.076;2023-05-29T05:14:14;267.42;;;252.85;;
60973;SDS011;46846;51.528;5.076;2023-05-29T05:16:39;269.42;;;255.18;;
60973;SDS011;46846;51.528;5.076;2023-05-29T05:19:05;277.57;;;263.40;;
60973;SDS011;46846;51.528;5.076;2023-05-29T05:21:30;258.65;;;245.23;;
60973;SDS011;46846;51.528;5.076;2023-05-29T05:23:57;264.30;;;250.73;;
60973;SDS011;46846;51.528;5.076;2023-05-29T05:26:23;272.15;;;258.27;;
60973;SDS011;46846;51.528;5.076;2023-05-29T05:28:48;271.10;;;257.15;;
60973;SDS011;46846;51.528;5.076;2023-05-29T05:31:14;269.95;;;256.25;;
60973;SDS011;46846;51.528;5.076;2023-05-29T05:33:39;267.48;;;252.65;;
60973;SDS011;46846;51.528;5.076;2023-05-29T05:36:05;269.35;;;254.68;;
60973;SDS011;46846;51.528;5.076;2023-05-29T05:38:31;251.32;;;238.25;;
60973;SDS011;46846;51.528;5.076;2023-05-29T05:40:57;275.38;;;260.00;;
60973;SDS011;46846;51.528;5.076;2023-05-29T05:43:22;259.95;;;246.55;;
60973;SDS011;46846;51.528;5.076;2023-05-29T05:45:48;266.20;;;252.60;;
60973;SDS011;46846;51.528;5.076;2023-05-29T05:48:13;267.33;;;253.05;;
60973;SDS011;46846;51.528;5.076;2023-05-29T05:50:39;269.55;;;255.82;;
60973;SDS011;46846;51.528;5.076;2023-05-29T05:53:04;237.27;;;225.07;;
60973;SDS011;46846;51.528;5.076;2023-05-29T05:55:29;252.93;;;239.45;;
60973;SDS011;46846;51.528;5.076;2023-05-29T05:57:55;268.67;;;254.18;;
60973;SDS011;46846;51.528;5.076;2023-05-29T06:00:22;263.33;;;249.23;;
60973;SDS011;46846;51.528;5.076;2023-05-29T06:02:48;256.85;;;243.68;;
60973;SDS011;46846;51.528;5.076;2023-05-29T06:05:13;262.35;;;248.70;;
60973;SDS011;46846;51.528;5.076;2023-05-29T06:07:38;269.45;;;255.70;;
60973;SDS011;46846;51.528;5.076;2023-05-29T06:10:04;271.05;;;256.90;;
60973;SDS011;46846;51.528;5.076;2023-05-29T06:12:30;260.73;;;246.98;;
60973;SDS011;46846;51.528;5.076;2023-05-29T06:14:55;271.42;;;257.25;;
60973;SDS011;46846;51.528;5.076;2023-05-29T06:17:21;252.93;;;239.48;;
60973;SDS011;46846;51.528;5.076;2023-05-29T06:19:48;266.20;;;252.27;;
60973;SDS011;46846;51.528;5.076;2023-05-29T06:22:14;255.02;;;241.57;;
60973;SDS011;46846;51.528;5.076;2023-05-29T06:24:40;274.55;;;259.70;;
60973;SDS011;46846;51.528;5.076;2023-05-29T06:27:05;264.92;;;250.40;;
60973;SDS011;46846;51.528;5.076;2023-05-29T06:29:31;269.10;;;255.40;;
60973;SDS011;46846;51.528;5.076;2023-05-29T06:31:57;257.98;;;244.32;;
60973;SDS011;46846;51.528;5.076;2023-05-29T06:34:23;245.65;;;232.65;;
60973;SDS011;46846;51.528;5.076;2023-05-29T06:36:48;248.60;;;235.25;;
60973;SDS011;46846;51.528;5.076;2023-05-29T06:39:14;264.60;;;250.82;;
60973;SDS011;46846;51.528;5.076;2023-05-29T06:41:40;258.55;;;245.07;;
60973;SDS011;46846;51.528;5.076;2023-05-29T06:44:05;259.88;;;246.32;;
60973;SDS011;46846;51.528;5.076;2023-05-29T06:46:31;249.73;;;236.68;;
60973;SDS011;46846;51.528;5.076;2023-05-29T06:48:56;262.95;;;248.23;;
60973;SDS011;46846;51.528;5.076;2023-05-29T06:51:21;267.63;;;253.43;;
60973;SDS011;46846;51.528;5.076;2023-05-29T06:53:47;258.75;;;245.30;;
60973;SDS011;46846;51.528;5.076;2023-05-29T06:56:12;263.63;;;249.75;;
60973;SDS011;46846;51.528;5.076;2023-05-29T06:58:38;268.23;;;253.77;;
60973;SDS011;46846;51.528;5.076;2023-05-29T07:01:04;265.20;;;251.20;;
60973;SDS011;46846;51.528;5.076;2023-05-29T07:03:30;248.63;;;236.05;;
60973;SDS011;46846;51.528;5.076;2023-05-29T07:05:55;247.13;;;233.73;;
60973;SDS011;46846;51.528;5.076;2023-05-29T07:08:21;270.65;;;256.90;;
60973;SDS011;46846;51.528;5.076;2023-05-29T07:10:47;266.65;;;252.23;;
60973;SDS011;46846;51.528;5.076;2023-05-29T07:13:17;258.33;;;245.10;;
60973;SDS011;46846;51.528;5.076;2023-05-29T07:15:43;264.80;;;250.90;;
60973;SDS011;46846;51.528;5.076;2023-05-29T07:18:09;266.63;;;252.80;;
60973;SDS011;46846;51.528;5.076;2023-05-29T07:20:35;259.30;;;246.10;;
60973;SDS011;46846;51.528;5.076;2023-05-29T07:23:01;259.60;;;245.55;;
60973;SDS011;46846;51.528;5.076;2023-05-29T07:25:27;271.45;;;256.55;;
60973;SDS011;46846;51.528;5.076;2023-05-29T07:27:52;254.63;;;241.43;;
60973;SDS011;46846;51.528;5.076;2023-05-29T07:30:18;266.52;;;252.63;;
60973;SDS011;46846;51.528;5.076;2023-05-29T07:32:44;263.42;;;249.32;;
60973;SDS011;46846;51.528;5.076;2023-05-29T07:35:10;265.25;;;251.23;;
60973;SDS011;46846;51.528;5.076;2023-05-29T07:37:35;262.75;;;249.05;;
60973;SDS011;46846;51.528;5.076;2023-05-29T07:40:01;257.67;;;244.77;;
60973;SDS011;46846;51.528;5.076;2023-05-29T07:42:30;260.08;;;246.57;;
60973;SDS011;46846;51.528;5.076;2023-05-29T07:44:57;265.48;;;251.75;;
60973;SDS011;46846;51.528;5.076;2023-05-29T07:47:22;275.00;;;260.65;;
60973;SDS011;46846;51.528;5.076;2023-05-29T07:49:47;267.08;;;253.55;;
60973;SDS011;46846;51.528;5.076;2023-05-29T07:52:13;275.40;;;260.50;;
60973;SDS011;46846;51.528;5.076;2023-05-29T07:54:38;258.42;;;244.82;;
60973;SDS011;46846;51.528;5.076;2023-05-29T07:57:04;262.08;;;248.90;;
60973;SDS011;46846;51.528;5.076;2023-05-29T07:59:34;265.92;;;252.35;;
60973;SDS011;46846;51.528;5.076;2023-05-29T08:02:06;264.17;;;249.75;;
60973;SDS011;46846;51.528;5.076;2023-05-29T08:04:31;258.70;;;245.43;;
60973;SDS011;46846;51.528;5.076;2023-05-29T08:06:57;273.05;;;258.35;;
60973;SDS011;46846;51.528;5.076;2023-05-29T08:09:24;268.13;;;253.77;;
60973;SDS011;46846;51.528;5.076;2023-05-29T08:11:49;275.67;;;261.17;;
60973;SDS011;46846;51.528;5.076;2023-05-29T08:14:15;278.80;;;264.65;;
60973;SDS011;46846;51.528;5.076;2023-05-29T08:16:41;279.50;;;264.83;;
60973;SDS011;46846;51.528;5.076;2023-05-29T08:19:07;271.27;;;257.17;;
60973;SDS011;46846;51.528;5.076;2023-05-29T08:21:32;272.95;;;258.05;;
60973;SDS011;46846;51.528;5.076;2023-05-29T08:23:58;283.98;;;269.67;;
60973;SDS011;46846;51.528;5.076;2023-05-29T08:26:24;279.77;;;265.85;;
60973;SDS011;46846;51.528;5.076;2023-05-29T08:28:49;290.85;;;275.88;;
60973;SDS011;46846;51.528;5.076;2023-05-29T08:31:15;289.17;;;273.63;;
60973;SDS011;46846;51.528;5.076;2023-05-29T08:33:41;276.35;;;262.10;;
60973;SDS011;46846;51.528;5.076;2023-05-29T08:36:07;281.73;;;267.40;;
60973;SDS011;46846;51.528;5.076;2023-05-29T08:38:33;287.23;;;272.10;;
60973;SDS011;46846;51.528;5.076;2023-05-29T08:40:59;285.60;;;270.95;;
60973;SDS011;46846;51.528;5.076;2023-05-29T08:43:25;291.35;;;276.52;;
60973;SDS011;46846;51.528;5.076;2023-05-29T08:45:55;292.83;;;277.80;;
60973;SDS011;46846;51.528;5.076;2023-05-29T08:48:27;282.27;;;267.65;;
60973;SDS011;46846;51.528;5.076;2023-05-29T08:50:54;303.48;;;287.48;;
60973;SDS011;46846;51.528;5.076;2023-05-29T08:53:21;297.13;;;281.92;;
60973;SDS011;46846;51.528;5.076;2023-05-29T08:55:48;299.42;;;284.30;;
60973;SDS011;46846;51.528;5.076;2023-05-29T08:58:22;302.63;;;287.08;;
60973;SDS011;46846;51.528;5.076;2023-05-29T09:00:48;307.80;;;291.77;;
60973;SDS011;46846;51.528;5.076;2023-05-29T09:03:15;294.27;;;279.20;;
60973;SDS011;46846;51.528;5.076;2023-05-29T09:05:42;306.92;;;291.15;;
60973;SDS011;46846;51.528;5.076;2023-05-29T09:08:09;287.35;;;272.38;;
60973;SDS011;46846;51.528;5.076;2023-05-29T09:10:37;307.90;;;292.35;;
60973;SDS011;46846;51.528;5.076;2023-05-29T09:13:04;316.63;;;300.40;;
60973;SDS011;46846;51.528;5.076;2023-05-29T09:15:30;318.15;;;302.02;;
60973;SDS011;46846;51.528;5.076;2023-05-29T09:17:56;304.48;;;289.15;;
60973;SDS011;46846;51.528;5.076;2023-05-29T09:20:23;305.27;;;289.88;;
60973;SDS011;46846;51.528;5.076;2023-05-29T09:23:02;305.98;;;290.83;;
60973;SDS011;46846;51.528;5.076;2023-05-29T09:25:30;298.73;;;283.25;;
60973;SDS011;46846;51.528;5.076;2023-05-29T09:27:58;321.27;;;304.95;;
60973;SDS011;46846;51.528;5.076;2023-05-29T09:30:40;319.73;;;303.52;;
60973;SDS011;46846;51.528;5.076;2023-05-29T09:33:08;320.75;;;304.42;;
60973;SDS011;46846;51.528;5.076;2023-05-29T09:35:36;311.55;;;295.90;;
60973;SDS011;46846;51.528;5.076;2023-05-29T09:38:03;318.15;;;302.10;;
60973;SDS011;46846;51.528;5.076;2023-05-29T09:40:30;322.77;;;306.40;;
60973;SDS011;46846;51.528;5.076;2023-05-29T09:43:18;319.75;;;303.77;;
60973;SDS011;46846;51.528;5.076;2023-05-29T09:45:48;333.42;;;316.40;;
60973;SDS011;46846;51.528;5.076;2023-05-29T09:48:15;321.48;;;305.27;;
60973;SDS011;46846;51.528;5.076;2023-05-29T09:50:42;319.40;;;303.05;;
60973;SDS011;46846;51.528;5.076;2023-05-29T09:55:47;342.67;;;325.05;;
60973;SDS011;46846;51.528;5.076;2023-05-29T09:58:17;337.33;;;320.23;;
60973;SDS011;46846;51.528;5.076;2023-05-29T10:00:43;330.58;;;313.73;;
60973;SDS011;46846;51.528;5.076;2023-05-29T10:03:12;323.88;;;307.45;;
60973;SDS011;46846;51.528;5.076;2023-05-29T10:05:38;333.05;;;315.98;;
60973;SDS011;46846;51.528;5.076;2023-05-29T10:08:05;352.67;;;335.00;;
60973;SDS011;46846;51.528;5.076;2023-05-29T10:10:33;331.30;;;314.42;;
60973;SDS011;46846;51.528;5.076;2023-05-29T10:13:01;348.58;;;331.13;;
60973;SDS011;46846;51.528;5.076;2023-05-29T10:15:29;337.65;;;320.95;;
60973;SDS011;46846;51.528;5.076;2023-05-29T10:18:05;332.52;;;315.98;;
60973;SDS011;46846;51.528;5.076;2023-05-29T10:20:37;337.27;;;319.98;;
60973;SDS011;46846;51.528;5.076;2023-05-29T10:23:03;356.83;;;338.85;;
60973;SDS011;46846;51.528;5.076;2023-05-29T10:25:31;353.90;;;336.23;;
60973;SDS011;46846;51.528;5.076;2023-05-29T10:28:00;345.88;;;328.30;;
60973;SDS011;46846;51.528;5.076;2023-05-29T10:36:10;347.58;;;330.25;;
60973;SDS011;46846;51.528;5.076;2023-05-29T10:38:43;348.13;;;329.85;;
60973;SDS011;46846;51.528;5.076;2023-05-29T10:43:58;347.30;;;330.05;;
60973;SDS011;46846;51.528;5.076;2023-05-29T10:49:19;358.27;;;340.40;;
60973;SDS011;46846;51.528;5.076;2023-05-29T10:51:46;350.30;;;332.90;;
60973;SDS011;46846;51.528;5.076;2023-05-29T10:54:13;354.65;;;336.60;;
60973;SDS011;46846;51.528;5.076;2023-05-29T10:56:39;360.30;;;342.20;;
60973;SDS011;46846;51.528;5.076;2023-05-29T10:59:06;355.98;;;337.38;;
60973;SDS011;46846;51.528;5.076;2023-05-29T11:01:33;356.70;;;339.13;;
60973;SDS011;46846;51.528;5.076;2023-05-29T11:06:42;379.77;;;360.58;;
60973;SDS011;46846;51.528;5.076;2023-05-29T11:12:13;364.58;;;346.35;;
60973;SDS011;46846;51.528;5.076;2023-05-29T11:15:05;360.45;;;342.17;;
60973;SDS011;46846;51.528;5.076;2023-05-29T11:20:05;377.75;;;358.83;;
60973;SDS011;46846;51.528;5.076;2023-05-29T11:25:13;366.92;;;348.33;;
60973;SDS011;46846;51.528;5.076;2023-05-29T11:27:40;376.70;;;358.02;;
60973;SDS011;46846;51.528;5.076;2023-05-29T11:30:06;378.30;;;359.05;;
60973;SDS011;46846;51.528;5.076;2023-05-29T11:32:32;362.23;;;344.02;;
60973;SDS011;46846;51.528;5.076;2023-05-29T11:35:03;371.63;;;353.08;;
60973;SDS011;46846;51.528;5.076;2023-05-29T11:37:33;376.10;;;357.23;;
60973;SDS011;46846;51.528;5.076;2023-05-29T11:40:11;353.08;;;335.20;;
60973;SDS011;46846;51.528;5.076;2023-05-29T11:42:43;366.00;;;347.75;;
60973;SDS011;46846;51.528;5.076;2023-05-29T11:45:18;373.58;;;354.70;;
60973;SDS011;46846;51.528;5.076;2023-05-29T11:47:58;366.67;;;348.63;;
60973;SDS011;46846;51.528;5.076;2023-05-29T11:50:28;369.23;;;350.63;;
60973;SDS011;46846;51.528;5.076;2023-05-29T11:52:58;366.88;;;348.67;;
60973;SDS011;46846;51.528;5.076;2023-05-29T11:55:25;371.77;;;353.52;;
60973;SDS011;46846;51.528;5.076;2023-05-29T11:57:55;369.17;;;350.80;;
60973;SDS011;46846;51.528;5.076;2023-05-29T12:00:22;379.00;;;360.13;;
60973;SDS011;46846;51.528;5.076;2023-05-29T12:02:49;375.10;;;356.45;;
60973;SDS011;46846;51.528;5.076;2023-05-29T12:05:16;377.58;;;358.92;;
60973;SDS011;46846;51.528;5.076;2023-05-29T12:07:46;365.80;;;347.55;;
60973;SDS011;46846;51.528;5.076;2023-05-29T12:10:15;379.70;;;360.10;;
60973;SDS011;46846;51.528;5.076;2023-05-29T12:12:41;380.45;;;361.40;;
60973;SDS011;46846;51.528;5.076;2023-05-29T12:15:07;379.58;;;360.58;;
60973;SDS011;46846;51.528;5.076;2023-05-29T12:17:34;379.92;;;361.08;;
60973;SDS011;46846;51.528;5.076;2023-05-29T12:20:01;390.27;;;370.98;;
60973;SDS011;46846;51.528;5.076;2023-05-29T12:22:35;385.10;;;366.00;;
60973;SDS011;46846;51.528;5.076;2023-05-29T12:25:06;388.42;;;368.73;;
60973;SDS011;46846;51.528;5.076;2023-05-29T12:27:32;386.88;;;367.65;;
60973;SDS011;46846;51.528;5.076;2023-05-29T12:30:02;382.10;;;363.02;;
60973;SDS011;46846;51.528;5.076;2023-05-29T12:33:01;377.30;;;357.98;;
60973;SDS011;46846;51.528;5.076;2023-05-29T12:35:21;383.88;;;364.67;;
60973;SDS011;46846;51.528;5.076;2023-05-29T12:37:48;398.08;;;378.45;;
60973;SDS011;46846;51.528;5.076;2023-05-29T12:42:45;377.42;;;357.50;;
60973;SDS011;46846;51.528;5.076;2023-05-29T12:45:14;386.13;;;367.02;;
60973;SDS011;46846;51.528;5.076;2023-05-29T12:48:00;372.77;;;354.33;;
60973;SDS011;46846;51.528;5.076;2023-05-29T12:55:22;387.15;;;367.92;;
60973;SDS011;46846;51.528;5.076;2023-05-29T12:57:48;387.50;;;368.20;;
60973;SDS011;46846;51.528;5.076;2023-05-29T13:00:13;370.70;;;351.92;;
60973;SDS011;46846;51.528;5.076;2023-05-29T13:02:39;396.30;;;376.95;;
60973;SDS011;46846;51.528;5.076;2023-05-29T13:05:06;389.00;;;369.15;;
60973;SDS011;46846;51.528;5.076;2023-05-29T13:07:32;374.15;;;355.70;;
60973;SDS011;46846;51.528;5.076;2023-05-29T13:09:58;390.10;;;370.80;;
60973;SDS011;46846;51.528;5.076;2023-05-29T13:12:25;386.60;;;367.33;;
60973;SDS011;46846;51.528;5.076;2023-05-29T13:14:50;397.15;;;377.33;;
60973;SDS011;46846;51.528;5.076;2023-05-29T13:17:15;388.15;;;368.50;;
60973;SDS011;46846;51.528;5.076;2023-05-29T13:19:42;391.05;;;371.25;;
60973;SDS011;46846;51.528;5.076;2023-05-29T13:22:08;379.85;;;360.50;;
60973;SDS011;46846;51.528;5.076;2023-05-29T13:24:33;396.90;;;377.35;;
60973;SDS011;46846;51.528;5.076;2023-05-29T13:26:59;408.73;;;387.92;;
60973;SDS011;46846;51.528;5.076;2023-05-29T13:29:25;387.88;;;368.50;;
60973;SDS011;46846;51.528;5.076;2023-05-29T13:31:51;412.27;;;391.40;;
60973;SDS011;46846;51.528;5.076;2023-05-29T13:34:17;395.58;;;376.17;;
60973;SDS011;46846;51.528;5.076;2023-05-29T13:36:42;392.95;;;373.05;;
60973;SDS011;46846;51.528;5.076;2023-05-29T13:39:09;405.95;;;385.92;;
60973;SDS011;46846;51.528;5.076;2023-05-29T13:41:35;392.88;;;373.40;;
60973;SDS011;46846;51.528;5.076;2023-05-29T13:44:00;390.50;;;371.08;;
60973;SDS011;46846;51.528;5.076;2023-05-29T13:46:26;398.30;;;378.48;;
60973;SDS011;46846;51.528;5.076;2023-05-29T13:48:52;392.05;;;372.58;;
60973;SDS011;46846;51.528;5.076;2023-05-29T13:51:17;388.85;;;369.67;;
60973;SDS011;46846;51.528;5.076;2023-05-29T13:53:43;393.63;;;374.05;;
60973;SDS011;46846;51.528;5.076;2023-05-29T13:56:08;400.60;;;380.52;;
60973;SDS011;46846;51.528;5.076;2023-05-29T13:58:34;399.42;;;379.63;;
60973;SDS011;46846;51.528;5.076;2023-05-29T14:00:59;400.48;;;380.60;;
60973;SDS011;46846;51.528;5.076;2023-05-29T14:03:25;383.85;;;364.67;;
60973;SDS011;46846;51.528;5.076;2023-05-29T14:05:53;389.90;;;370.42;;
60973;SDS011;46846;51.528;5.076;2023-05-29T14:08:19;386.33;;;366.50;;
60973;SDS011;46846;51.528;5.076;2023-05-29T14:10:45;389.10;;;369.35;;
60973;SDS011;46846;51.528;5.076;2023-05-29T14:13:12;413.42;;;393.10;;
60973;SDS011;46846;51.528;5.076;2023-05-29T14:15:37;405.05;;;384.58;;
60973;SDS011;46846;51.528;5.076;2023-05-29T14:18:02;403.58;;;382.77;;
60973;SDS011;46846;51.528;5.076;2023-05-29T14:20:28;395.08;;;375.38;;
60973;SDS011;46846;51.528;5.076;2023-05-29T14:22:54;407.83;;;387.67;;
60973;SDS011;46846;51.528;5.076;2023-05-29T14:25:20;402.33;;;382.15;;
60973;SDS011;46846;51.528;5.076;2023-05-29T14:27:45;417.83;;;397.30;;
60973;SDS011;46846;51.528;5.076;2023-05-29T14:30:11;404.17;;;383.50;;
60973;SDS011;46846;51.528;5.076;2023-05-29T14:32:36;394.25;;;374.35;;
60973;SDS011;46846;51.528;5.076;2023-05-29T14:35:01;394.83;;;374.90;;
60973;SDS011;46846;51.528;5.076;2023-05-29T14:37:27;398.52;;;378.88;;
60973;SDS011;46846;51.528;5.076;2023-05-29T14:39:53;395.25;;;375.30;;